Time;durP1;ratioP1;P1;durP2;ratioP2;P2;SDS_P1;SDS_P2;PMS_P1;PMS_P2;Temp;Humidity;BMP_temperature;BMP_pressure;BME280_temperature;BME280_humidity;BME280_pressure;Samples;Min_cycle;Max_cycle;Signal;HPM_P1;HPM_P2
2021/08/21 00:01:18;;;;;;;;;;;;;;;21.53;66.01;101488.81;1587364;38;152025;-58
2021/08/21 00:02:50;;;;;;;;;;;;;;;21.56;66.49;101481.78;1588807;30;152142;-58
2021/08/21 00:04:22;;;;;;;;;;;;;;;21.56;66.32;101479.78;1589011;38;152046;-57
2021/08/21 00:05:53;;;;;;;;;;;;;;;21.57;66.56;101484.28;1589132;30;152612;-58
2021/08/21 00:07:25;;;;;;;;;;;;;;;21.59;66.51;101478.34;1589403;38;152091;-58
2021/08/21 00:08:57;;;;;;;;;;;;;;;21.61;66.65;101485.34;1587023;38;151790;-58
2021/08/21 00:10:30;;;;;;;;;;;;;;;21.62;66.46;101484.19;1587912;38;151942;-58
2021/08/21 00:12:02;;;;;;;;;;;;;;;21.61;66.23;101479.72;1588750;38;151793;-58
2021/08/21 00:13:34;;;;;;;;;;;;;;;21.62;66.43;101487.00;1588252;30;152001;-58
2021/08/21 00:15:06;;;;;;;;;;;;;;;21.64;66.63;101481.94;1589156;30;152010;-58
2021/08/21 00:16:38;;;;;;;;;;;;;;;21.64;66.31;101481.94;1586316;38;152184;-58
2021/08/21 00:18:10;;;;;;;;;;;;;;;21.64;66.79;101484.75;1588876;38;151973;-58
2021/08/21 00:19:41;;;;;;;;;;;;;;;21.64;66.63;101481.94;1589328;38;152900;-58
2021/08/21 00:21:13;;;;;;;;;;;;;;;21.64;66.49;101473.50;1591586;30;152361;-58
2021/08/21 00:22:45;;;;;;;;;;;;;;;21.65;66.44;101471.50;1586673;30;153288;-58
2021/08/21 00:24:17;;;;;;;;;;;;;;;21.66;66.47;101478.81;1586691;38;153067;-57
2021/08/21 00:25:48;;;;;;;;;;;;;;;21.67;66.49;101472.03;1589064;38;153231;-57
2021/08/21 00:27:20;;;;;;;;;;;;;;;21.66;66.61;101476.84;1589426;38;153534;-58
2021/08/21 00:28:52;;;;;;;;;;;;;;;21.67;66.81;101480.47;1587912;38;153307;-58
2021/08/21 00:30:23;;;;;;;;;;;;;;;21.69;67.06;101475.38;1586887;38;153150;-58
2021/08/21 00:31:55;;;;;;;;;;;;;;;21.70;66.88;101477.06;1587538;38;153377;-58
2021/08/21 00:33:26;;;;;;;;;;;;;;;21.70;66.58;101474.25;1588969;30;153025;-57
2021/08/21 00:34:58;;;;;;;;;;;;;;;21.70;66.95;101480.72;1586430;38;151903;-58
2021/08/21 00:36:30;;;;;;;;;;;;;;;21.70;67.00;101475.09;1588697;38;154083;-58
2021/08/21 00:38:02;;;;;;;;;;;;;;;21.72;67.12;101471.97;1587051;38;152910;-58
2021/08/21 00:39:33;;;;;;;;;;;;;;;21.71;67.16;101468.31;1587566;38;152885;-58
2021/08/21 00:41:05;;;;;;;;;;;;;;;21.73;67.37;101468.84;1590782;30;153685;-58
2021/08/21 00:42:37;;;;;;;;;;;;;;;21.73;67.24;101468.84;1590340;38;153726;-58
2021/08/21 00:44:09;;;;;;;;;;;;;;;21.71;67.01;101457.06;1588694;38;153899;-58
2021/08/21 00:45:41;;;;;;;;;;;;;;;21.72;67.13;101464.38;1588803;38;154831;-58
2021/08/21 00:47:15;;;;;;;;;;;;;;;21.74;67.28;101470.53;1586683;38;154056;-58
2021/08/21 00:48:46;;;;;;;;;;;;;;;21.74;66.98;101464.91;1589724;30;154058;-58
2021/08/21 00:50:18;;;;;;;;;;;;;;;21.77;67.68;101463.44;1588912;30;153698;-58
2021/08/21 00:51:50;;;;;;;;;;;;;;;21.77;67.33;101459.78;1587354;38;155181;-58
2021/08/21 00:53:22;;;;;;;;;;;;;;;21.78;67.43;101464.28;1589228;38;153961;-58
2021/08/21 00:54:54;;;;;;;;;;;;;;;21.78;67.26;101464.28;1589345;38;154396;-58
2021/08/21 00:56:25;;;;;;;;;;;;;;;21.79;67.69;101463.16;1586318;38;153654;-58
2021/08/21 00:57:57;;;;;;;;;;;;;;;21.80;67.08;101459.22;1588459;38;154386;-58
2021/08/21 00:59:32;;;;;;;;;;;;;;;21.81;67.32;101461.69;1588168;38;153923;-58
2021/08/21 01:01:03;;;;;;;;;;;;;;;21.82;67.14;101462.53;1588700;38;153544;-59
2021/08/21 01:02:36;;;;;;;;;;;;;;;21.81;67.13;101450.44;1589559;38;153838;-58
2021/08/21 01:04:08;;;;;;;;;;;;;;;21.82;67.51;101449.31;1586969;38;153520;-58
2021/08/21 01:05:39;;;;;;;;;;;;;;;21.82;67.07;101448.47;1589874;30;153533;-58
2021/08/21 01:07:12;;;;;;;;;;;;;;;21.83;67.52;101447.34;1583916;30;152048;-58
2021/08/21 01:08:43;;;;;;;;;;;;;;;21.82;66.98;101454.94;1589293;30;152146;-58
2021/08/21 01:10:16;;;;;;;;;;;;;;;21.82;67.12;101454.94;1587725;38;151821;-58
2021/08/21 01:11:48;;;;;;;;;;;;;;;21.82;67.46;101451.28;1587399;30;152013;-58
2021/08/21 01:13:20;;;;;;;;;;;;;;;21.83;67.61;101452.97;1588812;38;152395;-58
2021/08/21 01:14:52;;;;;;;;;;;;;;;21.82;67.44;101454.09;1587599;38;152440;-58
2021/08/21 01:16:24;;;;;;;;;;;;;;;21.82;67.19;101448.47;1587514;38;152215;-58
2021/08/21 01:17:56;;;;;;;;;;;;;;;21.83;67.73;101453.81;1586583;31;151998;-58
2021/08/21 01:19:30;;;;;;;;;;;;;;;21.81;67.64;101452.41;1587697;38;152509;-58
2021/08/21 01:21:02;;;;;;;;;;;;;;;21.81;67.71;101450.44;1587314;38;152432;-58
2021/08/21 01:22:34;;;;;;;;;;;;;;;21.84;67.90;101449.00;1588217;38;151754;-58
2021/08/21 01:24:06;;;;;;;;;;;;;;;21.82;68.06;101454.09;1588251;38;152333;-58
2021/08/21 01:25:37;;;;;;;;;;;;;;;21.84;67.88;101454.66;1588470;38;152290;-58
2021/08/21 01:27:14;;;;;;;;;;;;;;;21.83;67.92;101448.19;1591350;30;152244;-59
2021/08/21 01:28:46;;;;;;;;;;;;;;;21.84;68.04;101451.81;1587149;38;152927;-57
2021/08/21 01:30:17;;;;;;;;;;;;;;;21.85;68.15;101445.06;1588403;38;153355;-58
2021/08/21 01:31:50;;;;;;;;;;;;;;;21.84;67.86;101449.00;1587980;38;153427;-58
2021/08/21 01:33:22;;;;;;;;;;;;;;;21.84;68.07;101446.19;1588026;38;153168;-58
2021/08/21 01:34:54;;;;;;;;;;;;;;;21.87;68.17;101448.41;1586387;38;153013;-57
2021/08/21 01:36:25;;;;;;;;;;;;;;;21.86;68.31;101441.94;1587817;38;152324;-57
2021/08/21 01:37:57;;;;;;;;;;;;;;;21.85;68.45;101445.88;1589361;38;152795;-58
2021/08/21 01:39:29;;;;;;;;;;;;;;;21.86;68.25;101444.75;1586176;38;153475;-58
2021/08/21 01:41:06;;;;;;;;;;;;;;;21.87;68.43;101435.16;1586905;38;153047;-58
2021/08/21 01:42:38;;;;;;;;;;;;;;;21.86;68.60;101429.84;1588211;38;153619;-58
2021/08/21 01:44:10;;;;;;;;;;;;;;;21.95;68.78;101436.47;1587246;30;153225;-57
2021/08/21 01:45:41;;;;;;;;;;;;;;;21.93;68.82;101431.19;1587232;38;153548;-58
2021/08/21 01:47:14;;;;;;;;;;;;;;;21.97;69.09;101437.03;1586011;38;153770;-58
2021/08/21 01:48:45;;;;;;;;;;;;;;;21.94;68.57;101432.00;1589358;38;152971;-58
2021/08/21 01:50:18;;;;;;;;;;;;;;;21.91;68.88;101433.41;1585910;38;154907;-58
2021/08/21 01:51:50;;;;;;;;;;;;;;;21.89;68.74;101434.88;1587907;30;153893;-57
2021/08/21 01:53:22;;;;;;;;;;;;;;;21.88;68.54;101433.19;1585844;38;154068;-58
2021/08/21 01:54:53;;;;;;;;;;;;;;;21.86;68.49;101427.03;1588696;30;154248;-58
2021/08/21 01:56:26;;;;;;;;;;;;;;;21.86;68.74;101427.88;1586340;38;154194;-57
2021/08/21 01:57:57;;;;;;;;;;;;;;;21.86;68.50;101421.41;1589002;38;155512;-58
2021/08/21 01:59:30;;;;;;;;;;;;;;;21.85;68.52;101425.38;1588630;38;153920;-58
2021/08/21 02:01:04;;;;;;;;;;;;;;;21.84;68.88;101424.53;1587303;30;154386;-58
2021/08/21 02:02:36;;;;;;;;;;;;;;;21.83;68.74;101419.22;1588434;38;154253;-58
2021/08/21 02:04:07;;;;;;;;;;;;;;;21.83;68.67;101417.22;1585997;38;154391;-58
2021/08/21 02:05:39;;;;;;;;;;;;;;;21.84;68.76;101426.50;1587861;38;156213;-58
2021/08/21 02:07:11;;;;;;;;;;;;;;;21.83;68.73;101422.84;1585568;38;153859;-57
2021/08/21 02:08:42;;;;;;;;;;;;;;;21.84;68.54;101426.50;1586234;38;153496;-58
2021/08/21 02:10:15;;;;;;;;;;;;;;;21.82;68.85;101423.16;1588794;38;153593;-58
2021/08/21 02:11:47;;;;;;;;;;;;;;;21.83;68.33;101427.66;1586030;38;152018;-58
2021/08/21 02:13:18;;;;;;;;;;;;;;;21.82;68.37;101426.81;1588227;30;152120;-58
2021/08/21 02:14:50;;;;;;;;;;;;;;;21.82;68.44;101426.81;1588890;30;152013;-58
2021/08/21 02:16:23;;;;;;;;;;;;;;;21.82;68.42;101432.44;1587559;38;151806;-57
2021/08/21 02:17:55;;;;;;;;;;;;;;;21.82;68.25;101434.41;1588067;38;152010;-58
2021/08/21 02:19:27;;;;;;;;;;;;;;;21.83;68.32;101433.28;1587953;38;152213;-58
2021/08/21 02:20:59;;;;;;;;;;;;;;;21.82;68.37;101435.25;1590077;30;151870;-58
2021/08/21 02:22:42;;;;;;;;;;;;;;;21.81;68.39;101432.72;1589583;38;152588;-58
2021/08/21 02:24:15;;;;;;;;;;;;;;;21.81;68.24;101436.38;1589898;38;152187;-58
2021/08/21 02:25:49;;;;;;;;;;;;;;;21.82;68.37;101440.88;1588910;38;152234;-58
2021/08/21 02:27:23;;;;;;;;;;;;;;;21.81;68.09;101436.38;1589676;38;151753;-58
2021/08/21 02:28:54;;;;;;;;;;;;;;;21.81;68.22;101421.47;1586919;38;152182;-58
2021/08/21 02:30:26;;;;;;;;;;;;;;;21.81;68.14;101425.13;1590517;38;152094;-58
2021/08/21 02:31:58;;;;;;;;;;;;;;;21.81;68.33;101432.72;1589746;30;152381;-58
2021/08/21 02:33:29;;;;;;;;;;;;;;;21.81;68.45;101429.91;1592126;38;152101;-58
2021/08/21 02:35:02;;;;;;;;;;;;;;;21.80;68.45;101428.25;1591066;30;153584;-58
2021/08/21 02:36:44;;;;;;;;;;;;;;;21.80;68.01;101434.72;1590469;38;153501;-58
2021/08/21 02:38:16;;;;;;;;;;;;;;;21.81;67.90;101435.53;1588357;38;152660;-58
2021/08/21 02:39:47;;;;;;;;;;;;;;;21.81;68.34;101435.53;1586876;38;152900;-58
2021/08/21 02:41:19;;;;;;;;;;;;;;;21.82;68.19;101423.16;1590212;30;152942;-58
2021/08/21 02:42:51;;;;;;;;;;;;;;;21.83;68.19;101422.03;1588940;38;153409;-58
2021/08/21 02:44:22;;;;;;;;;;;;;;;21.83;67.99;101419.22;1588814;38;153994;-57
2021/08/21 02:45:54;;;;;;;;;;;;;;;21.83;67.81;101413.56;1587435;38;152934;-57
2021/08/21 02:47:26;;;;;;;;;;;;;;;21.88;67.95;101419.97;1588200;31;153160;-58
2021/08/21 02:48:58;;;;;;;;;;;;;;;21.93;68.19;101419.09;1588508;38;153152;-58
2021/08/21 02:50:29;;;;;;;;;;;;;;;21.92;67.94;101415.41;1588925;38;152896;-57
2021/08/21 02:52:02;;;;;;;;;;;;;;;21.92;67.87;101417.38;1589815;30;154002;-58
2021/08/21 02:53:34;;;;;;;;;;;;;;;21.92;68.24;101411.75;1587153;38;153317;-58
2021/08/21 02:55:06;;;;;;;;;;;;;;;21.93;67.86;101413.44;1590180;30;153237;-58
2021/08/21 02:56:37;;;;;;;;;;;;;;;21.89;68.25;101418.84;1588576;38;153510;-58
2021/08/21 02:58:09;;;;;;;;;;;;;;;21.90;67.84;101411.19;1590260;38;153494;-59
2021/08/21 02:59:40;;;;;;;;;;;;;;;21.89;68.32;101406.75;1589749;38;153524;-58
2021/08/21 03:01:13;;;;;;;;;;;;;;;21.91;68.22;101404.44;1587884;38;153572;-57
2021/08/21 03:02:45;;;;;;;;;;;;;;;21.92;68.49;101406.13;1589557;38;153475;-57
2021/08/21 03:04:18;;;;;;;;;;;;;;;21.94;69.31;101412.31;1590884;30;153281;-58
2021/08/21 03:05:50;;;;;;;;;;;;;;;21.93;69.22;101417.09;1588554;38;153939;-58
2021/08/21 03:07:21;;;;;;;;;;;;;;;21.93;69.16;101405.84;1587064;38;154044;-58
2021/08/21 03:08:53;;;;;;;;;;;;;;;21.96;69.26;101422.09;1589996;38;154161;-58
2021/08/21 03:10:25;;;;;;;;;;;;;;;21.94;69.63;101412.31;1588245;38;155388;-58
2021/08/21 03:11:56;;;;;;;;;;;;;;;21.95;69.30;101412.00;1589892;38;153801;-58
2021/08/21 03:13:28;;;;;;;;;;;;;;;21.96;69.96;101416.47;1588085;38;153613;-58
2021/08/21 03:15:00;;;;;;;;;;;;;;;21.96;69.69;101412.81;1587624;38;153429;-58
2021/08/21 03:16:31;;;;;;;;;;;;;;;21.99;70.83;101406.56;1590138;30;153367;-58
2021/08/21 03:18:03;;;;;;;;;;;;;;;22.01;70.95;101407.13;1589829;38;152777;-58
2021/08/21 03:19:35;;;;;;;;;;;;;;;22.02;70.59;101406.81;1589575;38;152036;-57
2021/08/21 03:21:06;;;;;;;;;;;;;;;22.00;70.35;101403.47;1587898;38;152207;-58
2021/08/21 03:22:39;;;;;;;;;;;;;;;22.02;70.56;101405.97;1586772;38;152300;-58
2021/08/21 03:24:11;;;;;;;;;;;;;;;22.00;70.02;101408.25;1588697;38;152123;-58
2021/08/21 03:25:43;;;;;;;;;;;;;;;21.98;70.31;101404.94;1588983;38;151965;-57
2021/08/21 03:27:15;;;;;;;;;;;;;;;21.99;70.37;101406.56;1589354;38;151939;-58
2021/08/21 03:28:46;;;;;;;;;;;;;;;22.02;70.67;101405.97;1588289;38;152363;-58
2021/08/21 03:30:19;;;;;;;;;;;;;;;22.00;70.26;101411.91;1587032;38;152144;-58
2021/08/21 03:31:50;;;;;;;;;;;;;;;22.01;70.66;101407.13;1588813;38;151807;-57
2021/08/21 03:33:22;;;;;;;;;;;;;;;22.01;70.47;101405.16;1588678;30;152062;-58
2021/08/21 03:34:54;;;;;;;;;;;;;;;22.02;70.61;101405.97;1588399;30;152070;-58
2021/08/21 03:36:28;;;;;;;;;;;;;;;22.02;70.55;101403.16;1590489;38;151951;-58
2021/08/21 03:38:01;;;;;;;;;;;;;;;22.03;70.97;101404.84;1591191;30;152542;-58
2021/08/21 03:39:33;;;;;;;;;;;;;;;22.09;71.73;101398.81;1588150;38;153737;-60
2021/08/21 03:41:04;;;;;;;;;;;;;;;22.06;71.54;101402.25;1587614;38;153503;-58
2021/08/21 03:42:36;;;;;;;;;;;;;;;22.07;71.49;101397.47;1587231;31;153590;-58
2021/08/21 03:44:08;;;;;;;;;;;;;;;22.04;71.25;101396.06;1589232;38;153176;-58
2021/08/21 03:45:41;;;;;;;;;;;;;;;22.05;70.89;101394.94;1587428;38;153012;-58
2021/08/21 03:47:13;;;;;;;;;;;;;;;22.08;71.90;101396.28;1587927;38;154264;-58
2021/08/21 03:48:45;;;;;;;;;;;;;;;22.06;72.17;101391.00;1588587;38;153620;-62
2021/08/21 03:50:17;;;;;;;;;;;;;;;22.07;72.13;101387.03;1589253;38;153582;-58
2021/08/21 03:51:49;;;;;;;;;;;;;;;22.08;71.98;101391.50;1587701;38;153121;-58
2021/08/21 03:53:20;;;;;;;;;;;;;;;22.06;71.69;101391.00;1586614;38;153299;-58
2021/08/21 03:54:52;;;;;;;;;;;;;;;22.07;72.62;101398.28;1588646;38;153530;-58
2021/08/21 03:56:24;;;;;;;;;;;;;;;22.10;72.71;101396.84;1587730;38;153506;-58
2021/08/21 03:57:55;;;;;;;;;;;;;;;22.09;71.78;101397.97;1589091;38;153267;-58
2021/08/21 03:59:27;;;;;;;;;;;;;;;22.06;71.27;101391.00;1589796;38;153453;-58
2021/08/21 04:00:59;;;;;;;;;;;;;;;22.05;71.13;101397.75;1589900;38;153457;-58
2021/08/21 04:02:31;;;;;;;;;;;;;;;22.04;70.89;101392.44;1589823;30;153719;-58
2021/08/21 04:04:03;;;;;;;;;;;;;;;22.04;71.11;101390.44;1589257;38;154045;-58
2021/08/21 04:05:35;;;;;;;;;;;;;;;22.05;70.77;101394.09;1589554;38;153682;-57
2021/08/21 04:07:07;;;;;;;;;;;;;;;22.07;70.98;101386.19;1588918;30;153442;-58
2021/08/21 04:08:39;;;;;;;;;;;;;;;22.06;70.47;101392.97;1586552;38;154917;-58
2021/08/21 04:10:11;;;;;;;;;;;;;;;22.06;71.00;101387.34;1589425;30;153507;-57
2021/08/21 04:11:42;;;;;;;;;;;;;;;22.05;70.67;101396.91;1589345;38;153507;-58
2021/08/21 04:13:14;;;;;;;;;;;;;;;22.05;70.70;101394.09;1588518;38;154091;-58
2021/08/21 04:14:46;;;;;;;;;;;;;;;22.05;70.75;101392.13;1586691;38;154225;-58
2021/08/21 04:16:18;;;;;;;;;;;;;;;22.04;70.90;101390.44;1588947;38;154085;-58
2021/08/21 04:17:50;;;;;;;;;;;;;;;22.05;70.75;101383.69;1589278;30;154060;-57
2021/08/21 04:19:22;;;;;;;;;;;;;;;22.04;70.50;101389.63;1589695;38;153350;-58
2021/08/21 04:20:54;;;;;;;;;;;;;;;22.04;70.94;101398.88;1589797;38;153546;-57
2021/08/21 04:22:26;;;;;;;;;;;;;;;22.04;70.49;101389.63;1589736;38;153529;-58
2021/08/21 04:23:58;;;;;;;;;;;;;;;22.04;70.99;101389.63;1589455;38;152474;-58
2021/08/21 04:25:29;;;;;;;;;;;;;;;22.03;70.37;101388.78;1587700;38;152191;-58
2021/08/21 04:27:01;;;;;;;;;;;;;;;22.03;70.69;101393.59;1589216;38;152026;-58
2021/08/21 04:28:34;;;;;;;;;;;;;;;22.02;70.74;101389.09;1588984;38;152109;-57
2021/08/21 04:30:06;;;;;;;;;;;;;;;22.02;70.62;101384.31;1586811;38;152257;-58
2021/08/21 04:31:39;;;;;;;;;;;;;;;22.03;70.78;101385.97;1588595;38;152298;-58
2021/08/21 04:33:11;;;;;;;;;;;;;;;22.01;70.25;101382.63;1588928;38;153683;-58
2021/08/21 04:34:42;;;;;;;;;;;;;;;22.03;70.59;101385.97;1586691;38;152386;-58
2021/08/21 04:36:14;;;;;;;;;;;;;;;22.04;70.41;101384.81;1589205;38;152225;-58
2021/08/21 04:37:46;;;;;;;;;;;;;;;22.04;70.69;101383.97;1588779;30;152390;-57
2021/08/21 04:39:18;;;;;;;;;;;;;;;22.05;70.69;101385.66;1588503;38;152141;-58
2021/08/21 04:40:49;;;;;;;;;;;;;;;22.04;70.47;101389.63;1587258;38;151986;-58
2021/08/21 04:42:21;;;;;;;;;;;;;;;22.04;70.68;101386.78;1588939;30;151946;-57
2021/08/21 04:43:53;;;;;;;;;;;;;;;22.04;70.42;101383.97;1590266;38;152707;-57
2021/08/21 04:45:25;;;;;;;;;;;;;;;22.04;70.38;101384.81;1588696;38;153291;-58
2021/08/21 04:46:56;;;;;;;;;;;;;;;22.03;70.79;101385.97;1590105;38;153514;-58
2021/08/21 04:48:28;;;;;;;;;;;;;;;22.03;70.50;101374.69;1590414;38;153310;-58
2021/08/21 04:50:00;;;;;;;;;;;;;;;22.04;70.55;101378.34;1588528;38;152847;-58
2021/08/21 04:51:32;;;;;;;;;;;;;;;22.04;70.46;101381.16;1588292;38;152919;-58
2021/08/21 04:53:04;;;;;;;;;;;;;;;22.04;70.59;101384.81;1588843;38;152655;-58
2021/08/21 04:54:36;;;;;;;;;;;;;;;22.04;70.59;101387.63;1588904;38;153486;-58
2021/08/21 04:56:08;;;;;;;;;;;;;;;22.04;70.35;101396.06;1586871;38;153025;-58
2021/08/21 04:57:40;;;;;;;;;;;;;;;22.04;70.26;101387.63;1586823;38;154108;-58
2021/08/21 04:59:11;;;;;;;;;;;;;;;22.05;70.52;101389.31;1587243;38;153407;-58
2021/08/21 05:00:43;;;;;;;;;;;;;;;22.05;70.21;101392.13;1588897;38;153252;-58
2021/08/21 05:02:15;;;;;;;;;;;;;;;22.05;70.44;101391.28;1590220;30;152786;-58
2021/08/21 05:03:47;;;;;;;;;;;;;;;22.04;70.30;101387.63;1588792;38;152809;-58
2021/08/21 05:05:19;;;;;;;;;;;;;;;22.04;70.38;101387.63;1589499;38;154611;-59
2021/08/21 05:06:51;;;;;;;;;;;;;;;22.04;70.43;101379.19;1589932;38;154003;-58
2021/08/21 05:08:23;;;;;;;;;;;;;;;22.04;70.32;101386.78;1588413;38;154145;-57
2021/08/21 05:09:55;;;;;;;;;;;;;;;22.03;70.62;101385.16;1586476;38;153531;-58
2021/08/21 05:11:27;;;;;;;;;;;;;;;22.03;70.68;101388.78;1589394;30;153814;-58
2021/08/21 05:12:58;;;;;;;;;;;;;;;22.04;70.60;101381.16;1586688;38;154087;-58
2021/08/21 05:14:30;;;;;;;;;;;;;;;22.04;70.65;101389.63;1588023;38;153767;-58
2021/08/21 05:16:02;;;;;;;;;;;;;;;22.04;70.56;101390.44;1589036;38;153910;-58
2021/08/21 05:17:35;;;;;;;;;;;;;;;22.04;70.08;101379.19;1589283;38;153661;-58
2021/08/21 05:19:12;;;;;;;;;;;;;;;22.06;70.20;101395.78;1589212;30;154081;-58
2021/08/21 05:20:51;;;;;;;;;;;;;;;22.06;70.27;101401.41;1588496;38;153851;-58
2021/08/21 05:22:28;;;;;;;;;;;;;;;22.06;70.48;101392.97;1589775;30;154398;-58
2021/08/21 05:24:00;;;;;;;;;;;;;;;22.06;70.20;101391.00;1588448;38;153416;-57
2021/08/21 05:25:32;;;;;;;;;;;;;;;22.05;70.20;101389.31;1588276;38;153891;-58
2021/08/21 05:27:04;;;;;;;;;;;;;;;22.05;70.37;101391.28;1589616;38;153514;-58
2021/08/21 05:28:36;;;;;;;;;;;;;;;22.06;70.60;101387.34;1586824;38;151756;-58
2021/08/21 05:30:09;;;;;;;;;;;;;;;22.04;70.36;101379.19;1589825;30;151792;-58
2021/08/21 05:31:41;;;;;;;;;;;;;;;22.05;70.67;101380.03;1586216;38;152704;-58
2021/08/21 05:33:14;;;;;;;;;;;;;;;22.05;70.77;101380.03;1589001;38;152564;-58
2021/08/21 05:34:46;;;;;;;;;;;;;;;22.05;70.59;101380.03;1587360;38;152407;-58
2021/08/21 05:36:17;;;;;;;;;;;;;;;22.05;70.71;101382.84;1586943;38;153019;-58
2021/08/21 05:37:49;;;;;;;;;;;;;;;22.04;70.54;101387.63;1588720;38;152071;-58
2021/08/21 05:39:21;;;;;;;;;;;;;;;22.05;70.49;101394.09;1586705;38;152041;-58
2021/08/21 05:40:53;;;;;;;;;;;;;;;22.05;70.90;101396.91;1588927;38;151951;-57
2021/08/21 05:42:25;;;;;;;;;;;;;;;22.05;70.46;101392.13;1588194;38;152637;-58
2021/08/21 05:43:57;;;;;;;;;;;;;;;22.05;70.33;101396.91;1589635;38;152081;-58
2021/08/21 05:45:29;;;;;;;;;;;;;;;22.05;70.79;101385.66;1588432;38;151811;-58
2021/08/21 05:47:01;;;;;;;;;;;;;;;22.04;70.38;101389.63;1588432;38;152347;-58
2021/08/21 05:48:32;;;;;;;;;;;;;;;22.03;71.07;101394.41;1589302;38;152726;-58
2021/08/21 05:50:05;;;;;;;;;;;;;;;22.03;70.71;101400.03;1591633;38;152339;-58
2021/08/21 05:51:37;;;;;;;;;;;;;;;22.07;70.84;101392.66;1589325;38;152814;-58
2021/08/21 05:53:08;;;;;;;;;;;;;;;22.08;70.73;101388.69;1587569;38;153045;-58
2021/08/21 05:54:40;;;;;;;;;;;;;;;22.07;70.12;101387.03;1589484;38;155462;-57
2021/08/21 05:56:12;;;;;;;;;;;;;;;22.06;70.65;101381.72;1586172;38;153030;-58
2021/08/21 05:57:44;;;;;;;;;;;;;;;22.06;70.27;101385.38;1589652;38;153903;-58
2021/08/21 05:59:16;;;;;;;;;;;;;;;22.07;70.76;101389.84;1589099;38;153317;-58
2021/08/21 06:00:47;;;;;;;;;;;;;;;22.05;70.54;101392.13;1585906;38;153630;-58
2021/08/21 06:02:19;;;;;;;;;;;;;;;22.05;70.25;101389.31;1589027;30;153840;-58
2021/08/21 06:03:51;;;;;;;;;;;;;;;22.05;70.77;101385.66;1587316;38;153934;-58
2021/08/21 06:05:23;;;;;;;;;;;;;;;22.05;70.74;101380.03;1588510;30;153401;-58
2021/08/21 06:06:55;;;;;;;;;;;;;;;22.03;70.76;101387.97;1586374;38;152935;-58
2021/08/21 06:08:26;;;;;;;;;;;;;;;22.03;70.42;101385.16;1589094;38;153076;-58
2021/08/21 06:09:58;;;;;;;;;;;;;;;22.02;70.49;101387.13;1587498;38;153877;-58
2021/08/21 06:11:30;;;;;;;;;;;;;;;22.03;70.43;101394.41;1590843;30;153711;-58
2021/08/21 06:13:02;;;;;;;;;;;;;;;22.04;70.78;101389.63;1587874;38;153747;-58
2021/08/21 06:14:37;;;;;;;;;;;;;;;22.02;70.61;101387.13;1588901;30;154045;-58
2021/08/21 06:16:09;;;;;;;;;;;;;;;22.02;70.85;101395.56;1588678;38;153646;-58
2021/08/21 06:17:41;;;;;;;;;;;;;;;22.03;70.51;101402.84;1587046;38;153528;-57
2021/08/21 06:19:16;;;;;;;;;;;;;;;22.01;70.72;101396.69;1588926;38;153548;-58
2021/08/21 06:20:48;;;;;;;;;;;;;;;22.03;70.40;101394.41;1588448;38;153517;-58
2021/08/21 06:22:20;;;;;;;;;;;;;;;22.02;70.69;101394.72;1589061;38;153976;-58
2021/08/21 06:23:52;;;;;;;;;;;;;;;22.01;70.42;101398.69;1588783;30;153860;-58
2021/08/21 06:25:23;;;;;;;;;;;;;;;22.02;70.35;101394.72;1589010;38;153825;-58
2021/08/21 06:26:55;;;;;;;;;;;;;;;22.01;70.22;101396.69;1589021;38;153553;-58
2021/08/21 06:28:27;;;;;;;;;;;;;;;22.02;70.66;101398.38;1589419;38;153966;-58
2021/08/21 06:29:59;;;;;;;;;;;;;;;22.00;70.88;101397.84;1586882;38;153521;-57
2021/08/21 06:31:31;;;;;;;;;;;;;;;22.02;70.54;101400.34;1588071;38;154026;-58
2021/08/21 06:33:03;;;;;;;;;;;;;;;22.02;70.34;101403.16;1591444;38;154674;-58
2021/08/21 06:34:34;;;;;;;;;;;;;;;22.02;70.44;101397.53;1587020;38;151883;-58
2021/08/21 06:36:06;;;;;;;;;;;;;;;22.02;70.33;101395.56;1589319;30;152077;-58
2021/08/21 06:37:38;;;;;;;;;;;;;;;22.02;70.18;101400.34;1588224;38;152003;-58
2021/08/21 06:39:10;;;;;;;;;;;;;;;22.02;70.71;101387.13;1586859;38;151952;-57
2021/08/21 06:40:42;;;;;;;;;;;;;;;22.02;70.59;101394.72;1588499;38;152001;-58
2021/08/21 06:42:14;;;;;;;;;;;;;;;22.02;70.27;101391.91;1588235;38;152293;-57
2021/08/21 06:43:45;;;;;;;;;;;;;;;22.02;70.33;101395.56;1588305;38;151759;-58
2021/08/21 06:45:17;;;;;;;;;;;;;;;22.02;70.31;101389.94;1588177;38;152611;-58
2021/08/21 06:46:49;;;;;;;;;;;;;;;22.02;70.33;101391.91;1588305;30;152331;-58
2021/08/21 06:48:20;;;;;;;;;;;;;;;22.02;70.47;101389.94;1587240;38;152164;-57
2021/08/21 06:49:52;;;;;;;;;;;;;;;22.03;70.48;101387.97;1589024;38;152332;-58
2021/08/21 06:51:25;;;;;;;;;;;;;;;22.02;70.33;101380.66;1587966;38;152084;-57
2021/08/21 06:52:57;;;;;;;;;;;;;;;22.01;70.25;101381.78;1588547;30;151901;-58
2021/08/21 06:54:29;;;;;;;;;;;;;;;22.01;70.34;101376.16;1592089;38;151972;-57
2021/08/21 06:56:01;;;;;;;;;;;;;;;22.02;70.02;101378.69;1586340;38;153504;-58
2021/08/21 06:57:33;;;;;;;;;;;;;;;22.01;70.08;101373.34;1588314;38;153441;-57
2021/08/21 06:59:05;;;;;;;;;;;;;;;22.01;70.45;101374.19;1589887;30;153413;-58
2021/08/21 07:00:37;;;;;;;;;;;;;;;22.02;70.20;101370.25;1589227;38;152846;-58
2021/08/21 07:02:09;;;;;;;;;;;;;;;22.01;70.35;101370.53;1587325;38;152888;-58
2021/08/21 07:03:41;;;;;;;;;;;;;;;22.01;70.41;101373.34;1588625;38;153551;-58
2021/08/21 07:05:13;;;;;;;;;;;;;;;22.00;70.11;101361.25;1588317;38;153324;-57
2021/08/21 07:06:45;;;;;;;;;;;;;;;22.02;70.10;101372.22;1587752;38;152866;-57
2021/08/21 07:08:17;;;;;;;;;;;;;;;22.01;70.51;101367.72;1589771;38;152846;-57
2021/08/21 07:09:48;;;;;;;;;;;;;;;22.01;70.57;101367.72;1590372;30;151919;-57
2021/08/21 07:11:20;;;;;;;;;;;;;;;22.02;70.12;101372.22;1589845;38;153213;-58
2021/08/21 07:12:52;;;;;;;;;;;;;;;22.02;70.35;101375.03;1588394;38;153413;-58
2021/08/21 07:14:24;;;;;;;;;;;;;;;22.02;70.02;101372.22;1589737;38;152976;-58
2021/08/21 07:15:55;;;;;;;;;;;;;;;22.02;69.79;101369.41;1591751;38;153416;-57
2021/08/21 07:17:27;;;;;;;;;;;;;;;22.02;70.41;101372.22;1586124;38;153482;-57
2021/08/21 07:19:00;;;;;;;;;;;;;;;22.02;70.33;101372.22;1588914;38;154067;-57
2021/08/21 07:20:32;;;;;;;;;;;;;;;22.02;70.46;101375.03;1589158;38;153661;-58
2021/08/21 07:22:04;;;;;;;;;;;;;;;22.02;70.25;101375.03;1587508;38;154300;-57
2021/08/21 07:23:36;;;;;;;;;;;;;;;22.01;70.35;101370.53;1588606;38;154041;-58
2021/08/21 07:25:08;;;;;;;;;;;;;;;22.02;69.99;101373.06;1586839;38;153466;-57
2021/08/21 07:26:40;;;;;;;;;;;;;;;22.01;70.34;101371.38;1589481;38;153861;-57
2021/08/21 07:28:12;;;;;;;;;;;;;;;22.01;69.97;101371.38;1589272;38;153653;-58
2021/08/21 07:29:43;;;;;;;;;;;;;;;22.01;69.88;101381.78;1589562;38;154036;-57
2021/08/21 07:31:15;;;;;;;;;;;;;;;22.01;69.89;101388.25;1589575;38;155925;-57
2021/08/21 07:32:47;;;;;;;;;;;;;;;22.01;70.00;101393.88;1589099;30;154471;-58
2021/08/21 07:34:19;;;;;;;;;;;;;;;22.03;70.31;101385.16;1588131;38;153089;-58
2021/08/21 07:35:51;;;;;;;;;;;;;;;22.03;69.85;101391.59;1588447;38;153357;-58
2021/08/21 07:37:23;;;;;;;;;;;;;;;22.04;70.31;101395.25;1586624;38;154375;-58
2021/08/21 07:38:55;;;;;;;;;;;;;;;22.05;70.07;101399.72;1591260;30;153189;-58
2021/08/21 07:40:26;;;;;;;;;;;;;;;22.05;69.92;101396.91;1586596;38;152102;-58
2021/08/21 07:41:58;;;;;;;;;;;;;;;22.08;70.43;101401.91;1590156;38;152063;-58
2021/08/21 07:43:30;;;;;;;;;;;;;;;22.07;70.07;101400.28;1590436;38;151959;-58
2021/08/21 07:45:03;;;;;;;;;;;;;;;22.07;70.19;101394.66;1588714;30;152267;-58
2021/08/21 07:46:34;;;;;;;;;;;;;;;22.06;70.11;101395.78;1587754;38;152029;-58
2021/08/21 07:48:06;;;;;;;;;;;;;;;22.05;70.07;101388.47;1588209;38;152989;-58